sensor_id;sensor_type;location;lat;lon;timestamp;P1;durP1;ratioP1;P2;durP2;ratioP2
22144;SDS011;11238;48.730;11.566;2022-07-23T00:00:15;20.35;;;10.82;;
22144;SDS011;11238;48.730;11.566;2022-07-23T00:02:42;17.90;;;10.35;;
22144;SDS011;11238;48.730;11.566;2022-07-23T00:05:08;14.27;;;10.38;;
22144;SDS011;11238;48.730;11.566;2022-07-23T00:07:35;13.63;;;9.68;;
22144;SDS011;11238;48.730;11.566;2022-07-23T00:10:01;16.52;;;10.18;;
22144;SDS011;11238;48.730;11.566;2022-07-23T00:12:27;12.10;;;9.73;;
22144;SDS011;11238;48.730;11.566;2022-07-23T00:14:53;11.15;;;9.77;;
22144;SDS011;11238;48.730;11.566;2022-07-23T00:17:20;11.45;;;10.25;;
22144;SDS011;11238;48.730;11.566;2022-07-23T00:19:45;13.27;;;10.25;;
22144;SDS011;11238;48.730;11.566;2022-07-23T00:22:11;10.52;;;9.43;;
22144;SDS011;11238;48.730;11.566;2022-07-23T00:24:36;13.48;;;10.10;;
22144;SDS011;11238;48.730;11.566;2022-07-23T00:27:02;15.45;;;10.70;;
22144;SDS011;11238;48.730;11.566;2022-07-23T00:29:29;11.75;;;9.68;;
22144;SDS011;11238;48.730;11.566;2022-07-23T00:31:55;10.30;;;8.82;;
22144;SDS011;11238;48.730;11.566;2022-07-23T00:34:21;10.88;;;9.38;;
22144;SDS011;11238;48.730;11.566;2022-07-23T00:36:46;11.57;;;10.13;;
22144;SDS011;11238;48.730;11.566;2022-07-23T00:39:12;12.50;;;10.30;;
22144;SDS011;11238;48.730;11.566;2022-07-23T00:41:38;14.57;;;10.95;;
22144;SDS011;11238;48.730;11.566;2022-07-23T00:44:14;14.52;;;10.68;;
22144;SDS011;11238;48.730;11.566;2022-07-23T00:46:48;11.25;;;10.10;;
22144;SDS011;11238;48.730;11.566;2022-07-23T00:49:19;16.92;;;10.70;;
22144;SDS011;11238;48.730;11.566;2022-07-23T00:51:46;12.82;;;11.45;;
22144;SDS011;11238;48.730;11.566;2022-07-23T00:54:14;16.77;;;11.60;;
22144;SDS011;11238;48.730;11.566;2022-07-23T00:56:41;15.45;;;11.77;;
22144;SDS011;11238;48.730;11.566;2022-07-23T00:59:11;15.27;;;11.05;;
22144;SDS011;11238;48.730;11.566;2022-07-23T01:01:37;14.98;;;11.10;;
22144;SDS011;11238;48.730;11.566;2022-07-23T01:04:03;13.68;;;11.00;;
22144;SDS011;11238;48.730;11.566;2022-07-23T01:06:30;12.40;;;10.02;;
22144;SDS011;11238;48.730;11.566;2022-07-23T01:09:00;11.77;;;10.50;;
22144;SDS011;11238;48.730;11.566;2022-07-23T01:11:27;16.63;;;11.52;;
22144;SDS011;11238;48.730;11.566;2022-07-23T01:13:53;16.13;;;11.55;;
22144;SDS011;11238;48.730;11.566;2022-07-23T01:16:19;12.38;;;11.13;;
22144;SDS011;11238;48.730;11.566;2022-07-23T01:18:45;13.30;;;11.90;;
22144;SDS011;11238;48.730;11.566;2022-07-23T01:21:11;13.45;;;12.02;;
22144;SDS011;11238;48.730;11.566;2022-07-23T01:23:41;14.40;;;11.32;;
22144;SDS011;11238;48.730;11.566;2022-07-23T01:26:07;14.90;;;11.70;;
22144;SDS011;11238;48.730;11.566;2022-07-23T01:28:33;19.45;;;10.43;;
22144;SDS011;11238;48.730;11.566;2022-07-23T01:30:59;17.20;;;9.75;;
22144;SDS011;11238;48.730;11.566;2022-07-23T01:33:29;16.38;;;9.68;;
22144;SDS011;11238;48.730;11.566;2022-07-23T01:35:55;11.40;;;8.65;;
22144;SDS011;11238;48.730;11.566;2022-07-23T01:38:23;10.80;;;8.85;;
22144;SDS011;11238;48.730;11.566;2022-07-23T01:40:49;14.93;;;8.60;;
22144;SDS011;11238;48.730;11.566;2022-07-23T01:43:15;13.35;;;8.63;;
22144;SDS011;11238;48.730;11.566;2022-07-23T01:45:41;10.18;;;7.40;;
22144;SDS011;11238;48.730;11.566;2022-07-23T01:48:09;10.82;;;8.20;;
22144;SDS011;11238;48.730;11.566;2022-07-23T01:50:35;9.77;;;7.32;;
22144;SDS011;11238;48.730;11.566;2022-07-23T01:53:28;13.75;;;7.85;;
22144;SDS011;11238;48.730;11.566;2022-07-23T01:55:57;16.45;;;7.85;;
22144;SDS011;11238;48.730;11.566;2022-07-23T01:58:23;10.65;;;8.00;;
22144;SDS011;11238;48.730;11.566;2022-07-23T02:00:50;15.68;;;8.23;;
22144;SDS011;11238;48.730;11.566;2022-07-23T02:03:22;17.23;;;7.95;;
22144;SDS011;11238;48.730;11.566;2022-07-23T02:05:48;13.85;;;7.70;;
22144;SDS011;11238;48.730;11.566;2022-07-23T02:08:15;10.95;;;7.35;;
22144;SDS011;11238;48.730;11.566;2022-07-23T02:10:41;12.00;;;7.68;;
22144;SDS011;11238;48.730;11.566;2022-07-23T02:13:07;10.07;;;7.15;;
22144;SDS011;11238;48.730;11.566;2022-07-23T02:15:33;11.38;;;7.57;;
22144;SDS011;11238;48.730;11.566;2022-07-23T02:17:59;9.63;;;7.40;;
22144;SDS011;11238;48.730;11.566;2022-07-23T02:20:25;9.77;;;7.53;;
22144;SDS011;11238;48.730;11.566;2022-07-23T02:22:51;10.35;;;7.55;;
22144;SDS011;11238;48.730;11.566;2022-07-23T02:25:17;14.60;;;6.90;;
22144;SDS011;11238;48.730;11.566;2022-07-23T02:27:43;12.85;;;7.30;;
22144;SDS011;11238;48.730;11.566;2022-07-23T02:30:10;9.40;;;6.45;;
22144;SDS011;11238;48.730;11.566;2022-07-23T02:32:36;9.35;;;6.60;;
22144;SDS011;11238;48.730;11.566;2022-07-23T02:35:02;8.45;;;6.68;;
22144;SDS011;11238;48.730;11.566;2022-07-23T02:37:30;8.82;;;6.35;;
22144;SDS011;11238;48.730;11.566;2022-07-23T02:39:55;9.13;;;6.50;;
22144;SDS011;11238;48.730;11.566;2022-07-23T02:42:21;14.57;;;6.40;;
22144;SDS011;11238;48.730;11.566;2022-07-23T02:44:49;11.80;;;6.88;;
22144;SDS011;11238;48.730;11.566;2022-07-23T02:47:16;9.93;;;5.97;;
22144;SDS011;11238;48.730;11.566;2022-07-23T02:49:44;10.52;;;5.82;;
22144;SDS011;11238;48.730;11.566;2022-07-23T02:52:10;9.05;;;5.95;;
22144;SDS011;11238;48.730;11.566;2022-07-23T02:54:36;9.50;;;6.60;;
22144;SDS011;11238;48.730;11.566;2022-07-23T02:57:03;7.82;;;5.85;;
22144;SDS011;11238;48.730;11.566;2022-07-23T02:59:29;9.30;;;6.47;;
22144;SDS011;11238;48.730;11.566;2022-07-23T03:01:55;10.20;;;5.90;;
22144;SDS011;11238;48.730;11.566;2022-07-23T03:04:21;8.18;;;5.60;;
22144;SDS011;11238;48.730;11.566;2022-07-23T03:06:47;10.25;;;6.43;;
22144;SDS011;11238;48.730;11.566;2022-07-23T03:09:12;11.40;;;6.18;;
22144;SDS011;11238;48.730;11.566;2022-07-23T03:11:38;9.25;;;6.45;;
22144;SDS011;11238;48.730;11.566;2022-07-23T03:14:04;13.10;;;6.00;;
22144;SDS011;11238;48.730;11.566;2022-07-23T03:16:32;10.35;;;6.05;;
22144;SDS011;11238;48.730;11.566;2022-07-23T03:18:58;12.52;;;6.20;;
22144;SDS011;11238;48.730;11.566;2022-07-23T03:21:26;9.45;;;6.10;;
22144;SDS011;11238;48.730;11.566;2022-07-23T03:23:52;9.18;;;6.95;;
22144;SDS011;11238;48.730;11.566;2022-07-23T03:26:18;9.57;;;6.00;;
22144;SDS011;11238;48.730;11.566;2022-07-23T03:28:44;11.82;;;6.18;;
22144;SDS011;11238;48.730;11.566;2022-07-23T03:31:10;8.50;;;6.53;;
22144;SDS011;11238;48.730;11.566;2022-07-23T03:33:37;10.00;;;5.90;;
22144;SDS011;11238;48.730;11.566;2022-07-23T03:36:03;8.40;;;6.13;;
22144;SDS011;11238;48.730;11.566;2022-07-23T03:38:31;11.02;;;6.35;;
22144;SDS011;11238;48.730;11.566;2022-07-23T03:40:57;8.27;;;6.07;;
22144;SDS011;11238;48.730;11.566;2022-07-23T03:43:23;10.98;;;5.80;;
22144;SDS011;11238;48.730;11.566;2022-07-23T03:45:51;9.88;;;5.88;;
22144;SDS011;11238;48.730;11.566;2022-07-23T03:48:17;8.10;;;5.72;;
22144;SDS011;11238;48.730;11.566;2022-07-23T03:50:43;6.32;;;5.18;;
22144;SDS011;11238;48.730;11.566;2022-07-23T03:53:09;9.30;;;5.72;;
22144;SDS011;11238;48.730;11.566;2022-07-23T03:55:35;8.02;;;5.63;;
22144;SDS011;11238;48.730;11.566;2022-07-23T03:58:01;7.00;;;5.63;;
22144;SDS011;11238;48.730;11.566;2022-07-23T04:00:27;7.75;;;5.30;;
22144;SDS011;11238;48.730;11.566;2022-07-23T04:02:53;7.85;;;5.55;;
22144;SDS011;11238;48.730;11.566;2022-07-23T04:05:19;7.38;;;5.35;;
22144;SDS011;11238;48.730;11.566;2022-07-23T04:07:49;8.57;;;5.10;;
22144;SDS011;11238;48.730;11.566;2022-07-23T04:10:15;6.35;;;4.63;;
22144;SDS011;11238;48.730;11.566;2022-07-23T04:12:41;7.60;;;4.93;;
22144;SDS011;11238;48.730;11.566;2022-07-23T04:15:07;7.68;;;5.07;;
22144;SDS011;11238;48.730;11.566;2022-07-23T04:17:35;8.73;;;5.47;;
22144;SDS011;11238;48.730;11.566;2022-07-23T04:20:01;7.25;;;5.90;;
22144;SDS011;11238;48.730;11.566;2022-07-23T04:22:33;9.57;;;5.90;;
22144;SDS011;11238;48.730;11.566;2022-07-23T04:24:59;6.85;;;5.38;;
22144;SDS011;11238;48.730;11.566;2022-07-23T04:27:24;6.75;;;5.60;;
22144;SDS011;11238;48.730;11.566;2022-07-23T04:29:50;9.18;;;5.60;;
22144;SDS011;11238;48.730;11.566;2022-07-23T04:32:16;7.22;;;5.60;;
22144;SDS011;11238;48.730;11.566;2022-07-23T04:34:42;6.55;;;5.53;;
22144;SDS011;11238;48.730;11.566;2022-07-23T04:37:08;8.30;;;5.80;;
22144;SDS011;11238;48.730;11.566;2022-07-23T04:39:35;8.07;;;5.60;;
22144;SDS011;11238;48.730;11.566;2022-07-23T04:42:00;7.28;;;5.95;;
22144;SDS011;11238;48.730;11.566;2022-07-23T04:44:26;8.13;;;6.55;;
22144;SDS011;11238;48.730;11.566;2022-07-23T04:46:53;7.90;;;6.13;;
22144;SDS011;11238;48.730;11.566;2022-07-23T04:49:18;6.93;;;5.40;;
22144;SDS011;11238;48.730;11.566;2022-07-23T04:51:45;6.18;;;5.57;;
22144;SDS011;11238;48.730;11.566;2022-07-23T04:54:11;10.50;;;6.45;;
22144;SDS011;11238;48.730;11.566;2022-07-23T04:56:37;7.43;;;6.18;;
22144;SDS011;11238;48.730;11.566;2022-07-23T04:59:04;8.55;;;6.40;;
22144;SDS011;11238;48.730;11.566;2022-07-23T05:01:30;7.45;;;5.60;;
22144;SDS011;11238;48.730;11.566;2022-07-23T05:03:56;8.38;;;6.55;;
22144;SDS011;11238;48.730;11.566;2022-07-23T05:06:28;9.27;;;4.93;;
22144;SDS011;11238;48.730;11.566;2022-07-23T05:08:55;7.70;;;4.38;;
22144;SDS011;11238;48.730;11.566;2022-07-23T05:11:20;7.13;;;5.07;;
22144;SDS011;11238;48.730;11.566;2022-07-23T05:13:46;6.55;;;4.80;;
22144;SDS011;11238;48.730;11.566;2022-07-23T05:16:12;5.70;;;4.60;;
22144;SDS011;11238;48.730;11.566;2022-07-23T05:18:38;8.43;;;4.88;;
22144;SDS011;11238;48.730;11.566;2022-07-23T05:21:04;7.53;;;4.57;;
22144;SDS011;11238;48.730;11.566;2022-07-23T05:23:30;5.28;;;4.50;;
22144;SDS011;11238;48.730;11.566;2022-07-23T05:25:56;10.77;;;4.57;;
22144;SDS011;11238;48.730;11.566;2022-07-23T05:28:24;5.70;;;4.00;;
22144;SDS011;11238;48.730;11.566;2022-07-23T05:30:52;5.50;;;4.22;;
22144;SDS011;11238;48.730;11.566;2022-07-23T05:33:18;8.88;;;4.32;;
22144;SDS011;11238;48.730;11.566;2022-07-23T05:35:45;6.18;;;3.90;;
22144;SDS011;11238;48.730;11.566;2022-07-23T05:38:28;6.00;;;4.40;;
22144;SDS011;11238;48.730;11.566;2022-07-23T05:40:57;6.80;;;4.10;;
22144;SDS011;11238;48.730;11.566;2022-07-23T05:43:24;8.48;;;5.18;;
22144;SDS011;11238;48.730;11.566;2022-07-23T05:45:50;6.53;;;4.22;;
22144;SDS011;11238;48.730;11.566;2022-07-23T05:48:16;5.80;;;4.53;;
22144;SDS011;11238;48.730;11.566;2022-07-23T05:50:54;8.63;;;4.40;;
22144;SDS011;11238;48.730;11.566;2022-07-23T05:53:33;7.00;;;4.97;;
22144;SDS011;11238;48.730;11.566;2022-07-23T05:56:03;9.30;;;5.07;;
22144;SDS011;11238;48.730;11.566;2022-07-23T05:58:30;8.35;;;5.22;;
22144;SDS011;11238;48.730;11.566;2022-07-23T06:00:56;7.10;;;5.55;;
22144;SDS011;11238;48.730;11.566;2022-07-23T06:03:22;5.95;;;4.93;;
22144;SDS011;11238;48.730;11.566;2022-07-23T06:05:47;8.88;;;5.55;;
22144;SDS011;11238;48.730;11.566;2022-07-23T06:08:13;7.53;;;4.75;;
22144;SDS011;11238;48.730;11.566;2022-07-23T06:10:39;5.80;;;4.88;;
22144;SDS011;11238;48.730;11.566;2022-07-23T06:13:05;10.15;;;5.22;;
22144;SDS011;11238;48.730;11.566;2022-07-23T06:15:31;6.43;;;5.13;;
22144;SDS011;11238;48.730;11.566;2022-07-23T06:17:57;6.55;;;4.97;;
22144;SDS011;11238;48.730;11.566;2022-07-23T06:20:23;6.28;;;4.70;;
22144;SDS011;11238;48.730;11.566;2022-07-23T06:22:49;5.53;;;4.25;;
22144;SDS011;11238;48.730;11.566;2022-07-23T06:25:15;5.72;;;4.60;;
22144;SDS011;11238;48.730;11.566;2022-07-23T06:27:43;5.30;;;4.80;;
22144;SDS011;11238;48.730;11.566;2022-07-23T06:30:10;5.50;;;4.70;;
22144;SDS011;11238;48.730;11.566;2022-07-23T06:32:37;6.85;;;5.25;;
22144;SDS011;11238;48.730;11.566;2022-07-23T06:35:03;5.97;;;5.28;;
22144;SDS011;11238;48.730;11.566;2022-07-23T06:37:29;8.27;;;4.97;;
22144;SDS011;11238;48.730;11.566;2022-07-23T06:39:54;7.35;;;5.15;;
22144;SDS011;11238;48.730;11.566;2022-07-23T06:42:21;5.75;;;5.03;;
22144;SDS011;11238;48.730;11.566;2022-07-23T06:44:55;7.38;;;5.20;;
22144;SDS011;11238;48.730;11.566;2022-07-23T06:47:21;6.57;;;5.30;;
22144;SDS011;11238;48.730;11.566;2022-07-23T06:49:47;5.68;;;5.07;;
22144;SDS011;11238;48.730;11.566;2022-07-23T06:52:12;10.27;;;6.13;;
22144;SDS011;11238;48.730;11.566;2022-07-23T06:54:38;7.47;;;6.68;;
22144;SDS011;11238;48.730;11.566;2022-07-23T06:57:04;7.38;;;6.30;;
22144;SDS011;11238;48.730;11.566;2022-07-23T06:59:30;7.72;;;5.50;;
22144;SDS011;11238;48.730;11.566;2022-07-23T07:01:57;12.13;;;5.72;;
22144;SDS011;11238;48.730;11.566;2022-07-23T07:04:23;8.50;;;6.15;;
22144;SDS011;11238;48.730;11.566;2022-07-23T07:10:36;7.45;;;5.97;;
22144;SDS011;11238;48.730;11.566;2022-07-23T07:13:02;8.00;;;6.22;;
22144;SDS011;11238;48.730;11.566;2022-07-23T07:15:28;7.50;;;5.70;;
22144;SDS011;11238;48.730;11.566;2022-07-23T07:17:54;7.07;;;5.53;;
22144;SDS011;11238;48.730;11.566;2022-07-23T07:20:20;9.57;;;5.68;;
22144;SDS011;11238;48.730;11.566;2022-07-23T07:22:46;12.05;;;6.15;;
22144;SDS011;11238;48.730;11.566;2022-07-23T07:25:12;6.85;;;5.55;;
22144;SDS011;11238;48.730;11.566;2022-07-23T07:27:45;6.80;;;5.68;;
22144;SDS011;11238;48.730;11.566;2022-07-23T07:30:11;7.75;;;6.95;;
22144;SDS011;11238;48.730;11.566;2022-07-23T07:32:38;7.93;;;6.60;;
22144;SDS011;11238;48.730;11.566;2022-07-23T07:35:05;7.80;;;6.70;;
22144;SDS011;11238;48.730;11.566;2022-07-23T07:37:32;8.60;;;6.10;;
22144;SDS011;11238;48.730;11.566;2022-07-23T07:39:58;8.38;;;5.70;;
22144;SDS011;11238;48.730;11.566;2022-07-23T07:42:24;10.02;;;7.53;;
22144;SDS011;11238;48.730;11.566;2022-07-23T07:44:50;8.30;;;6.50;;
22144;SDS011;11238;48.730;11.566;2022-07-23T07:47:16;7.80;;;6.63;;
22144;SDS011;11238;48.730;11.566;2022-07-23T07:49:41;8.98;;;7.13;;
22144;SDS011;11238;48.730;11.566;2022-07-23T07:52:08;9.07;;;6.30;;
22144;SDS011;11238;48.730;11.566;2022-07-23T07:54:34;10.55;;;6.82;;
22144;SDS011;11238;48.730;11.566;2022-07-23T07:57:00;14.85;;;5.95;;
22144;SDS011;11238;48.730;11.566;2022-07-23T07:59:26;10.25;;;7.10;;
22144;SDS011;11238;48.730;11.566;2022-07-23T08:01:52;10.07;;;7.00;;
22144;SDS011;11238;48.730;11.566;2022-07-23T08:04:18;8.15;;;6.10;;
22144;SDS011;11238;48.730;11.566;2022-07-23T08:06:43;10.40;;;7.22;;
22144;SDS011;11238;48.730;11.566;2022-07-23T08:09:09;8.93;;;7.30;;
22144;SDS011;11238;48.730;11.566;2022-07-23T08:11:35;7.70;;;6.13;;
22144;SDS011;11238;48.730;11.566;2022-07-23T08:14:01;9.27;;;5.95;;
22144;SDS011;11238;48.730;11.566;2022-07-23T08:16:27;7.70;;;6.43;;
22144;SDS011;11238;48.730;11.566;2022-07-23T08:18:53;8.93;;;6.55;;
22144;SDS011;11238;48.730;11.566;2022-07-23T08:21:19;6.82;;;5.60;;
22144;SDS011;11238;48.730;11.566;2022-07-23T08:23:45;8.02;;;5.88;;
22144;SDS011;11238;48.730;11.566;2022-07-23T08:26:11;8.48;;;6.47;;
22144;SDS011;11238;48.730;11.566;2022-07-23T08:28:37;8.32;;;6.00;;
22144;SDS011;11238;48.730;11.566;2022-07-23T08:31:03;10.80;;;7.50;;
22144;SDS011;11238;48.730;11.566;2022-07-23T08:33:30;9.13;;;6.22;;
22144;SDS011;11238;48.730;11.566;2022-07-23T08:35:56;11.00;;;6.50;;
22144;SDS011;11238;48.730;11.566;2022-07-23T08:38:22;8.45;;;6.65;;
22144;SDS011;11238;48.730;11.566;2022-07-23T08:40:51;9.23;;;6.97;;
22144;SDS011;11238;48.730;11.566;2022-07-23T08:43:20;12.63;;;6.63;;
22144;SDS011;11238;48.730;11.566;2022-07-23T08:45:48;9.05;;;7.47;;
22144;SDS011;11238;48.730;11.566;2022-07-23T08:48:20;9.50;;;7.20;;
22144;SDS011;11238;48.730;11.566;2022-07-23T08:51:07;8.82;;;6.68;;
22144;SDS011;11238;48.730;11.566;2022-07-23T08:53:33;10.30;;;6.90;;
22144;SDS011;11238;48.730;11.566;2022-07-23T08:56:04;7.22;;;6.45;;
22144;SDS011;11238;48.730;11.566;2022-07-23T08:58:31;9.40;;;6.68;;
22144;SDS011;11238;48.730;11.566;2022-07-23T09:00:57;9.48;;;7.22;;
22144;SDS011;11238;48.730;11.566;2022-07-23T09:03:25;9.20;;;6.93;;
22144;SDS011;11238;48.730;11.566;2022-07-23T09:05:54;8.00;;;6.85;;
22144;SDS011;11238;48.730;11.566;2022-07-23T09:08:25;8.57;;;6.70;;
22144;SDS011;11238;48.730;11.566;2022-07-23T09:11:01;8.40;;;6.47;;
22144;SDS011;11238;48.730;11.566;2022-07-23T09:16:07;7.85;;;6.50;;
22144;SDS011;11238;48.730;11.566;2022-07-23T09:21:29;9.15;;;6.72;;
22144;SDS011;11238;48.730;11.566;2022-07-23T09:24:00;9.93;;;6.72;;
22144;SDS011;11238;48.730;11.566;2022-07-23T09:26:49;7.45;;;6.07;;
22144;SDS011;11238;48.730;11.566;2022-07-23T09:29:18;12.15;;;6.63;;
22144;SDS011;11238;48.730;11.566;2022-07-23T09:31:54;7.45;;;5.88;;
22144;SDS011;11238;48.730;11.566;2022-07-23T09:34:24;7.93;;;5.82;;
22144;SDS011;11238;48.730;11.566;2022-07-23T09:37:08;7.63;;;5.68;;
22144;SDS011;11238;48.730;11.566;2022-07-23T09:39:41;8.43;;;6.47;;
22144;SDS011;11238;48.730;11.566;2022-07-23T09:42:16;6.65;;;6.00;;
22144;SDS011;11238;48.730;11.566;2022-07-23T09:44:46;6.22;;;5.65;;
22144;SDS011;11238;48.730;11.566;2022-07-23T09:47:14;10.88;;;6.70;;
22144;SDS011;11238;48.730;11.566;2022-07-23T09:49:40;8.60;;;5.65;;
22144;SDS011;11238;48.730;11.566;2022-07-23T09:52:32;5.97;;;5.13;;
22144;SDS011;11238;48.730;11.566;2022-07-23T09:55:01;8.45;;;5.35;;
22144;SDS011;11238;48.730;11.566;2022-07-23T09:57:29;5.35;;;4.85;;
22144;SDS011;11238;48.730;11.566;2022-07-23T09:59:57;7.03;;;5.47;;
22144;SDS011;11238;48.730;11.566;2022-07-23T10:02:26;6.60;;;5.47;;
22144;SDS011;11238;48.730;11.566;2022-07-23T10:05:11;5.78;;;5.13;;
22144;SDS011;11238;48.730;11.566;2022-07-23T10:08:03;8.20;;;5.45;;
22144;SDS011;11238;48.730;11.566;2022-07-23T10:10:58;8.75;;;5.57;;
22144;SDS011;11238;48.730;11.566;2022-07-23T10:13:45;6.68;;;5.03;;
22144;SDS011;11238;48.730;11.566;2022-07-23T10:16:26;6.50;;;5.30;;
22144;SDS011;11238;48.730;11.566;2022-07-23T10:18:52;8.00;;;4.80;;
22144;SDS011;11238;48.730;11.566;2022-07-23T10:21:27;7.22;;;4.90;;
22144;SDS011;11238;48.730;11.566;2022-07-23T10:29:31;5.07;;;4.50;;
22144;SDS011;11238;48.730;11.566;2022-07-23T10:32:20;4.85;;;4.28;;
22144;SDS011;11238;48.730;11.566;2022-07-23T10:37:55;4.88;;;4.38;;
22144;SDS011;11238;48.730;11.566;2022-07-23T10:40:27;6.03;;;4.47;;
22144;SDS011;11238;48.730;11.566;2022-07-23T10:42:58;4.75;;;4.22;;
22144;SDS011;11238;48.730;11.566;2022-07-23T10:45:27;5.10;;;4.20;;
22144;SDS011;11238;48.730;11.566;2022-07-23T10:47:55;6.93;;;4.50;;
22144;SDS011;11238;48.730;11.566;2022-07-23T10:50:35;4.88;;;4.15;;
22144;SDS011;11238;48.730;11.566;2022-07-23T10:53:08;6.93;;;4.15;;
22144;SDS011;11238;48.730;11.566;2022-07-23T10:55:40;6.90;;;4.43;;
22144;SDS011;11238;48.730;11.566;2022-07-23T10:58:07;7.07;;;4.30;;
22144;SDS011;11238;48.730;11.566;2022-07-23T11:00:33;7.18;;;4.28;;
22144;SDS011;11238;48.730;11.566;2022-07-23T11:03:02;4.80;;;3.70;;
22144;SDS011;11238;48.730;11.566;2022-07-23T11:05:40;5.35;;;4.05;;
22144;SDS011;11238;48.730;11.566;2022-07-23T11:08:11;5.53;;;3.90;;
22144;SDS011;11238;48.730;11.566;2022-07-23T11:13:27;5.53;;;3.85;;
22144;SDS011;11238;48.730;11.566;2022-07-23T11:20:54;7.32;;;4.13;;
22144;SDS011;11238;48.730;11.566;2022-07-23T11:23:20;5.15;;;3.78;;
22144;SDS011;11238;48.730;11.566;2022-07-23T11:25:46;5.55;;;4.07;;
22144;SDS011;11238;48.730;11.566;2022-07-23T11:28:14;4.43;;;3.35;;
22144;SDS011;11238;48.730;11.566;2022-07-23T11:30:42;3.92;;;3.53;;
22144;SDS011;11238;48.730;11.566;2022-07-23T11:35:38;4.25;;;3.78;;
22144;SDS011;11238;48.730;11.566;2022-07-23T11:38:17;5.50;;;3.58;;
22144;SDS011;11238;48.730;11.566;2022-07-23T11:40:48;6.32;;;3.70;;
22144;SDS011;11238;48.730;11.566;2022-07-23T11:43:15;4.97;;;3.67;;
22144;SDS011;11238;48.730;11.566;2022-07-23T11:45:42;6.80;;;3.90;;
22144;SDS011;11238;48.730;11.566;2022-07-23T11:48:17;5.15;;;3.80;;
22144;SDS011;11238;48.730;11.566;2022-07-23T11:50:46;4.00;;;3.60;;
22144;SDS011;11238;48.730;11.566;2022-07-23T11:53:13;3.50;;;3.20;;
22144;SDS011;11238;48.730;11.566;2022-07-23T11:55:47;4.60;;;3.92;;
22144;SDS011;11238;48.730;11.566;2022-07-23T11:58:13;4.88;;;4.38;;
22144;SDS011;11238;48.730;11.566;2022-07-23T12:00:39;4.43;;;3.83;;
22144;SDS011;11238;48.730;11.566;2022-07-23T12:03:06;3.58;;;3.28;;
22144;SDS011;11238;48.730;11.566;2022-07-23T12:05:34;6.05;;;3.80;;
22144;SDS011;11238;48.730;11.566;2022-07-23T12:08:01;6.03;;;3.83;;
22144;SDS011;11238;48.730;11.566;2022-07-23T12:10:37;4.30;;;3.90;;
22144;SDS011;11238;48.730;11.566;2022-07-23T12:13:05;4.82;;;3.97;;
22144;SDS011;11238;48.730;11.566;2022-07-23T12:15:41;4.28;;;3.70;;
22144;SDS011;11238;48.730;11.566;2022-07-23T12:18:09;5.43;;;3.83;;
22144;SDS011;11238;48.730;11.566;2022-07-23T12:20:38;5.32;;;4.10;;
22144;SDS011;11238;48.730;11.566;2022-07-23T12:23:08;5.65;;;4.32;;
22144;SDS011;11238;48.730;11.566;2022-07-23T12:25:37;6.22;;;3.78;;
22144;SDS011;11238;48.730;11.566;2022-07-23T12:28:05;5.93;;;4.03;;
22144;SDS011;11238;48.730;11.566;2022-07-23T12:30:34;8.60;;;5.55;;
22144;SDS011;11238;48.730;11.566;2022-07-23T12:33:27;8.68;;;4.82;;
22144;SDS011;11238;48.730;11.566;2022-07-23T12:35:56;5.53;;;4.97;;
22144;SDS011;11238;48.730;11.566;2022-07-23T12:38:24;6.80;;;4.80;;
22144;SDS011;11238;48.730;11.566;2022-07-23T12:43:27;7.03;;;5.03;;
22144;SDS011;11238;48.730;11.566;2022-07-23T12:45:54;6.50;;;5.35;;
22144;SDS011;11238;48.730;11.566;2022-07-23T12:48:24;9.27;;;5.03;;
22144;SDS011;11238;48.730;11.566;2022-07-23T12:56:16;9.98;;;5.40;;
22144;SDS011;11238;48.730;11.566;2022-07-23T12:58:49;6.07;;;5.07;;
22144;SDS011;11238;48.730;11.566;2022-07-23T13:03:55;6.05;;;5.05;;
22144;SDS011;11238;48.730;11.566;2022-07-23T13:06:29;5.95;;;5.10;;
22144;SDS011;11238;48.730;11.566;2022-07-23T13:08:56;5.38;;;4.88;;
22144;SDS011;11238;48.730;11.566;2022-07-23T13:11:23;7.65;;;5.28;;
22144;SDS011;11238;48.730;11.566;2022-07-23T13:13:49;5.55;;;4.90;;
22144;SDS011;11238;48.730;11.566;2022-07-23T13:16:15;6.93;;;5.03;;
22144;SDS011;11238;48.730;11.566;2022-07-23T13:18:41;7.95;;;5.38;;
22144;SDS011;11238;48.730;11.566;2022-07-23T13:21:07;5.05;;;4.55;;
22144;SDS011;11238;48.730;11.566;2022-07-23T13:23:33;5.20;;;4.70;;
22144;SDS011;11238;48.730;11.566;2022-07-23T13:25:59;5.95;;;4.40;;
22144;SDS011;11238;48.730;11.566;2022-07-23T13:28:24;7.68;;;4.93;;
22144;SDS011;11238;48.730;11.566;2022-07-23T13:30:50;6.93;;;4.43;;
22144;SDS011;11238;48.730;11.566;2022-07-23T13:33:18;6.30;;;4.82;;
22144;SDS011;11238;48.730;11.566;2022-07-23T13:35:46;8.32;;;4.90;;
22144;SDS011;11238;48.730;11.566;2022-07-23T13:38:12;8.18;;;5.18;;
22144;SDS011;11238;48.730;11.566;2022-07-23T13:40:39;7.47;;;4.88;;
22144;SDS011;11238;48.730;11.566;2022-07-23T13:43:08;6.18;;;5.00;;
22144;SDS011;11238;48.730;11.566;2022-07-23T13:45:35;5.43;;;4.70;;
22144;SDS011;11238;48.730;11.566;2022-07-23T13:48:01;5.25;;;4.80;;
22144;SDS011;11238;48.730;11.566;2022-07-23T13:50:27;6.85;;;4.85;;
22144;SDS011;11238;48.730;11.566;2022-07-23T13:52:53;6.28;;;5.20;;
22144;SDS011;11238;48.730;11.566;2022-07-23T13:55:19;6.00;;;5.40;;
22144;SDS011;11238;48.730;11.566;2022-07-23T13:57:45;10.35;;;6.32;;
22144;SDS011;11238;48.730;11.566;2022-07-23T14:00:12;10.80;;;6.82;;
22144;SDS011;11238;48.730;11.566;2022-07-23T14:02:38;9.43;;;6.40;;
22144;SDS011;11238;48.730;11.566;2022-07-23T14:05:06;8.32;;;6.43;;
22144;SDS011;11238;48.730;11.566;2022-07-23T14:07:35;9.48;;;6.30;;
22144;SDS011;11238;48.730;11.566;2022-07-23T14:10:02;11.18;;;6.97;;
22144;SDS011;11238;48.730;11.566;2022-07-23T14:12:30;12.27;;;7.05;;
22144;SDS011;11238;48.730;11.566;2022-07-23T14:14:56;13.27;;;6.97;;
22144;SDS011;11238;48.730;11.566;2022-07-23T14:17:22;13.60;;;7.25;;
22144;SDS011;11238;48.730;11.566;2022-07-23T14:19:48;9.63;;;6.80;;
22144;SDS011;11238;48.730;11.566;2022-07-23T14:22:14;11.25;;;6.65;;
22144;SDS011;11238;48.730;11.566;2022-07-23T14:24:39;9.15;;;6.95;;
22144;SDS011;11238;48.730;11.566;2022-07-23T14:27:05;11.85;;;7.18;;
22144;SDS011;11238;48.730;11.566;2022-07-23T14:29:31;8.20;;;6.47;;
22144;SDS011;11238;48.730;11.566;2022-07-23T14:31:58;7.25;;;6.55;;
22144;SDS011;11238;48.730;11.566;2022-07-23T14:34:24;8.77;;;6.68;;
22144;SDS011;11238;48.730;11.566;2022-07-23T14:36:51;10.98;;;6.50;;
22144;SDS011;11238;48.730;11.566;2022-07-23T14:39:17;9.68;;;7.15;;
22144;SDS011;11238;48.730;11.566;2022-07-23T14:41:43;7.25;;;6.50;;
22144;SDS011;11238;48.730;11.566;2022-07-23T14:44:09;7.85;;;6.70;;
22144;SDS011;11238;48.730;11.566;2022-07-23T14:46:35;9.07;;;6.30;;
22144;SDS011;11238;48.730;11.566;2022-07-23T14:49:01;9.23;;;6.70;;
22144;SDS011;11238;48.730;11.566;2022-07-23T14:51:28;7.70;;;5.80;;
22144;SDS011;11238;48.730;11.566;2022-07-23T14:53:54;9.52;;;6.30;;
22144;SDS011;11238;48.730;11.566;2022-07-23T14:56:19;7.53;;;5.88;;
22144;SDS011;11238;48.730;11.566;2022-07-23T14:58:45;6.18;;;5.57;;
22144;SDS011;11238;48.730;11.566;2022-07-23T15:01:11;6.68;;;5.22;;
22144;SDS011;11238;48.730;11.566;2022-07-23T15:03:36;6.47;;;5.32;;
22144;SDS011;11238;48.730;11.566;2022-07-23T15:06:03;6.63;;;5.90;;
22144;SDS011;11238;48.730;11.566;2022-07-23T15:08:29;10.77;;;6.07;;
22144;SDS011;11238;48.730;11.566;2022-07-23T15:10:55;6.40;;;5.80;;
22144;SDS011;11238;48.730;11.566;2022-07-23T15:13:21;8.20;;;5.30;;